sensor_id;sensor_type;location;lat;lon;timestamp;P1;durP1;ratioP1;P2;durP2;ratioP2
6023;SDS011;3040;42.654;23.296;2023-02-18T00:01:10;13.53;;;11.00;;
6023;SDS011;3040;42.654;23.296;2023-02-18T00:03:38;15.73;;;12.00;;
6023;SDS011;3040;42.654;23.296;2023-02-18T00:06:09;22.77;;;14.73;;
6023;SDS011;3040;42.654;23.296;2023-02-18T00:08:37;20.33;;;13.57;;
6023;SDS011;3040;42.654;23.296;2023-02-18T00:11:06;24.67;;;13.93;;
6023;SDS011;3040;42.654;23.296;2023-02-18T00:13:33;22.13;;;13.00;;
6023;SDS011;3040;42.654;23.296;2023-02-18T00:16:00;22.53;;;13.53;;
6023;SDS011;3040;42.654;23.296;2023-02-18T00:18:28;20.43;;;13.10;;
6023;SDS011;3040;42.654;23.296;2023-02-18T00:20:55;17.67;;;11.93;;
6023;SDS011;3040;42.654;23.296;2023-02-18T00:23:22;19.80;;;13.60;;
6023;SDS011;3040;42.654;23.296;2023-02-18T00:25:57;19.27;;;11.77;;
6023;SDS011;3040;42.654;23.296;2023-02-18T00:28:26;18.43;;;12.33;;
6023;SDS011;3040;42.654;23.296;2023-02-18T00:30:53;24.30;;;12.17;;
6023;SDS011;3040;42.654;23.296;2023-02-18T00:33:20;17.20;;;11.87;;
6023;SDS011;3040;42.654;23.296;2023-02-18T00:35:47;19.57;;;12.57;;
6023;SDS011;3040;42.654;23.296;2023-02-18T00:38:14;22.83;;;12.73;;
6023;SDS011;3040;42.654;23.296;2023-02-18T00:40:42;22.53;;;13.13;;
6023;SDS011;3040;42.654;23.296;2023-02-18T00:43:09;20.40;;;13.00;;
6023;SDS011;3040;42.654;23.296;2023-02-18T00:45:37;28.63;;;16.83;;
6023;SDS011;3040;42.654;23.296;2023-02-18T00:48:04;20.63;;;13.80;;
6023;SDS011;3040;42.654;23.296;2023-02-18T00:50:31;22.13;;;13.40;;
6023;SDS011;3040;42.654;23.296;2023-02-18T00:52:58;27.17;;;15.67;;
6023;SDS011;3040;42.654;23.296;2023-02-18T00:55:25;24.23;;;14.50;;
6023;SDS011;3040;42.654;23.296;2023-02-18T00:57:52;16.97;;;14.17;;
6023;SDS011;3040;42.654;23.296;2023-02-18T01:00:19;20.40;;;14.00;;
6023;SDS011;3040;42.654;23.296;2023-02-18T01:02:47;25.17;;;14.37;;
6023;SDS011;3040;42.654;23.296;2023-02-18T01:05:18;26.43;;;13.20;;
6023;SDS011;3040;42.654;23.296;2023-02-18T01:07:45;19.50;;;12.97;;
6023;SDS011;3040;42.654;23.296;2023-02-18T01:10:12;23.53;;;14.50;;
6023;SDS011;3040;42.654;23.296;2023-02-18T01:12:39;24.03;;;15.63;;
6023;SDS011;3040;42.654;23.296;2023-02-18T01:15:06;21.40;;;13.80;;
6023;SDS011;3040;42.654;23.296;2023-02-18T01:17:34;23.17;;;14.20;;
6023;SDS011;3040;42.654;23.296;2023-02-18T01:20:02;27.57;;;17.10;;
6023;SDS011;3040;42.654;23.296;2023-02-18T01:22:29;36.40;;;20.20;;
6023;SDS011;3040;42.654;23.296;2023-02-18T01:24:56;34.07;;;15.37;;
6023;SDS011;3040;42.654;23.296;2023-02-18T01:27:23;27.13;;;15.60;;
6023;SDS011;3040;42.654;23.296;2023-02-18T01:29:50;18.33;;;13.23;;
6023;SDS011;3040;42.654;23.296;2023-02-18T01:32:17;15.97;;;12.47;;
6023;SDS011;3040;42.654;23.296;2023-02-18T01:34:44;19.73;;;12.57;;
6023;SDS011;3040;42.654;23.296;2023-02-18T01:37:12;22.27;;;13.13;;
6023;SDS011;3040;42.654;23.296;2023-02-18T01:39:40;25.67;;;14.67;;
6023;SDS011;3040;42.654;23.296;2023-02-18T01:42:11;20.40;;;14.00;;
6023;SDS011;3040;42.654;23.296;2023-02-18T01:44:44;24.73;;;15.00;;
6023;SDS011;3040;42.654;23.296;2023-02-18T01:47:12;28.20;;;17.80;;
6023;SDS011;3040;42.654;23.296;2023-02-18T01:49:39;31.90;;;18.97;;
6023;SDS011;3040;42.654;23.296;2023-02-18T01:52:07;25.63;;;16.33;;
6023;SDS011;3040;42.654;23.296;2023-02-18T01:54:41;29.40;;;16.93;;
6023;SDS011;3040;42.654;23.296;2023-02-18T01:57:11;25.73;;;16.93;;
6023;SDS011;3040;42.654;23.296;2023-02-18T01:59:41;23.00;;;15.60;;
6023;SDS011;3040;42.654;23.296;2023-02-18T02:02:12;26.70;;;15.73;;
6023;SDS011;3040;42.654;23.296;2023-02-18T02:04:41;24.73;;;15.10;;
6023;SDS011;3040;42.654;23.296;2023-02-18T02:07:08;17.03;;;14.63;;
6023;SDS011;3040;42.654;23.296;2023-02-18T02:09:35;15.10;;;11.90;;
6023;SDS011;3040;42.654;23.296;2023-02-18T02:12:10;14.23;;;11.23;;
6023;SDS011;3040;42.654;23.296;2023-02-18T02:14:54;16.87;;;11.83;;
6023;SDS011;3040;42.654;23.296;2023-02-18T02:17:34;20.40;;;12.13;;
6023;SDS011;3040;42.654;23.296;2023-02-18T02:26:33;21.90;;;15.43;;
6023;SDS011;3040;42.654;23.296;2023-02-18T02:29:34;20.30;;;13.90;;
6023;SDS011;3040;42.654;23.296;2023-02-18T02:32:26;15.87;;;11.97;;
6023;SDS011;3040;42.654;23.296;2023-02-18T02:35:06;14.60;;;11.37;;
6023;SDS011;3040;42.654;23.296;2023-02-18T02:37:39;11.97;;;10.67;;
6023;SDS011;3040;42.654;23.296;2023-02-18T02:40:14;18.23;;;12.03;;
6023;SDS011;3040;42.654;23.296;2023-02-18T02:42:49;14.20;;;11.60;;
6023;SDS011;3040;42.654;23.296;2023-02-18T02:45:28;19.10;;;11.57;;
6023;SDS011;3040;42.654;23.296;2023-02-18T02:48:08;18.80;;;12.43;;
6023;SDS011;3040;42.654;23.296;2023-02-18T02:50:43;16.87;;;12.33;;
6023;SDS011;3040;42.654;23.296;2023-02-18T02:53:17;24.90;;;13.70;;
6023;SDS011;3040;42.654;23.296;2023-02-18T02:55:49;18.40;;;12.83;;
6023;SDS011;3040;42.654;23.296;2023-02-18T02:58:16;21.73;;;14.03;;
6023;SDS011;3040;42.654;23.296;2023-02-18T03:00:48;18.63;;;13.33;;
6023;SDS011;3040;42.654;23.296;2023-02-18T03:03:39;27.77;;;14.90;;
6023;SDS011;3040;42.654;23.296;2023-02-18T03:09:15;22.33;;;15.60;;
6023;SDS011;3040;42.654;23.296;2023-02-18T03:11:47;23.07;;;12.67;;
6023;SDS011;3040;42.654;23.296;2023-02-18T03:14:21;20.13;;;12.60;;
6023;SDS011;3040;42.654;23.296;2023-02-18T03:16:57;18.30;;;13.07;;
6023;SDS011;3040;42.654;23.296;2023-02-18T03:19:29;14.63;;;11.43;;
6023;SDS011;3040;42.654;23.296;2023-02-18T03:22:02;14.23;;;10.83;;
6023;SDS011;3040;42.654;23.296;2023-02-18T03:24:34;19.63;;;12.60;;
6023;SDS011;3040;42.654;23.296;2023-02-18T03:27:05;11.20;;;9.87;;
6023;SDS011;3040;42.654;23.296;2023-02-18T03:29:36;11.27;;;9.70;;
6023;SDS011;3040;42.654;23.296;2023-02-18T03:32:05;13.20;;;10.83;;
6023;SDS011;3040;42.654;23.296;2023-02-18T03:34:36;18.63;;;11.97;;
6023;SDS011;3040;42.654;23.296;2023-02-18T03:37:08;14.67;;;11.57;;
6023;SDS011;3040;42.654;23.296;2023-02-18T03:39:38;17.50;;;12.70;;
6023;SDS011;3040;42.654;23.296;2023-02-18T03:42:07;14.43;;;11.77;;
6023;SDS011;3040;42.654;23.296;2023-02-18T03:44:34;21.40;;;12.00;;
6023;SDS011;3040;42.654;23.296;2023-02-18T03:47:01;14.50;;;12.17;;
6023;SDS011;3040;42.654;23.296;2023-02-18T03:49:28;17.50;;;12.27;;
6023;SDS011;3040;42.654;23.296;2023-02-18T03:51:55;14.93;;;12.07;;
6023;SDS011;3040;42.654;23.296;2023-02-18T03:54:24;19.67;;;11.10;;
6023;SDS011;3040;42.654;23.296;2023-02-18T03:56:50;16.50;;;12.37;;
6023;SDS011;3040;42.654;23.296;2023-02-18T03:59:17;12.97;;;11.57;;
6023;SDS011;3040;42.654;23.296;2023-02-18T04:01:44;18.47;;;11.83;;
6023;SDS011;3040;42.654;23.296;2023-02-18T04:04:11;16.00;;;10.33;;
6023;SDS011;3040;42.654;23.296;2023-02-18T04:06:38;11.47;;;10.33;;
6023;SDS011;3040;42.654;23.296;2023-02-18T04:09:05;15.47;;;11.57;;
6023;SDS011;3040;42.654;23.296;2023-02-18T04:11:34;14.90;;;12.07;;
6023;SDS011;3040;42.654;23.296;2023-02-18T04:14:02;11.80;;;10.17;;
6023;SDS011;3040;42.654;23.296;2023-02-18T04:16:30;20.03;;;12.27;;
6023;SDS011;3040;42.654;23.296;2023-02-18T04:18:57;19.63;;;12.10;;
6023;SDS011;3040;42.654;23.296;2023-02-18T04:21:24;17.07;;;11.43;;
6023;SDS011;3040;42.654;23.296;2023-02-18T04:23:51;15.13;;;11.80;;
6023;SDS011;3040;42.654;23.296;2023-02-18T04:26:18;20.83;;;12.23;;
6023;SDS011;3040;42.654;23.296;2023-02-18T04:28:46;17.23;;;11.60;;
6023;SDS011;3040;42.654;23.296;2023-02-18T04:31:13;17.47;;;11.10;;
6023;SDS011;3040;42.654;23.296;2023-02-18T04:33:40;16.37;;;11.23;;
6023;SDS011;3040;42.654;23.296;2023-02-18T04:36:07;18.13;;;11.30;;
6023;SDS011;3040;42.654;23.296;2023-02-18T04:38:35;20.90;;;10.90;;
6023;SDS011;3040;42.654;23.296;2023-02-18T04:41:02;22.90;;;11.27;;
6023;SDS011;3040;42.654;23.296;2023-02-18T04:43:29;17.77;;;10.80;;
6023;SDS011;3040;42.654;23.296;2023-02-18T04:45:57;14.20;;;11.30;;
6023;SDS011;3040;42.654;23.296;2023-02-18T04:48:24;15.90;;;10.47;;
6023;SDS011;3040;42.654;23.296;2023-02-18T04:50:51;17.10;;;11.80;;
6023;SDS011;3040;42.654;23.296;2023-02-18T04:53:17;14.97;;;11.17;;
6023;SDS011;3040;42.654;23.296;2023-02-18T04:55:48;16.60;;;11.60;;
6023;SDS011;3040;42.654;23.296;2023-02-18T04:58:15;26.10;;;13.80;;
6023;SDS011;3040;42.654;23.296;2023-02-18T05:00:42;20.83;;;13.83;;
6023;SDS011;3040;42.654;23.296;2023-02-18T05:03:11;18.33;;;12.33;;
6023;SDS011;3040;42.654;23.296;2023-02-18T05:05:38;15.70;;;11.47;;
6023;SDS011;3040;42.654;23.296;2023-02-18T05:08:05;20.87;;;12.77;;
6023;SDS011;3040;42.654;23.296;2023-02-18T05:10:33;22.03;;;12.43;;
6023;SDS011;3040;42.654;23.296;2023-02-18T05:12:59;14.40;;;11.97;;
6023;SDS011;3040;42.654;23.296;2023-02-18T05:15:26;15.03;;;10.97;;
6023;SDS011;3040;42.654;23.296;2023-02-18T05:17:53;18.87;;;12.30;;
6023;SDS011;3040;42.654;23.296;2023-02-18T05:20:22;19.33;;;11.87;;
6023;SDS011;3040;42.654;23.296;2023-02-18T05:22:48;25.87;;;13.70;;
6023;SDS011;3040;42.654;23.296;2023-02-18T05:25:15;17.90;;;12.60;;
6023;SDS011;3040;42.654;23.296;2023-02-18T05:27:42;21.73;;;12.97;;
6023;SDS011;3040;42.654;23.296;2023-02-18T05:30:10;19.53;;;13.00;;
6023;SDS011;3040;42.654;23.296;2023-02-18T05:32:37;20.33;;;13.43;;
6023;SDS011;3040;42.654;23.296;2023-02-18T05:35:04;19.17;;;12.97;;
6023;SDS011;3040;42.654;23.296;2023-02-18T05:37:33;20.23;;;14.07;;
6023;SDS011;3040;42.654;23.296;2023-02-18T05:40:00;26.57;;;15.43;;
6023;SDS011;3040;42.654;23.296;2023-02-18T05:42:27;18.17;;;13.93;;
6023;SDS011;3040;42.654;23.296;2023-02-18T05:44:54;25.27;;;13.80;;
6023;SDS011;3040;42.654;23.296;2023-02-18T05:47:21;24.50;;;12.90;;
6023;SDS011;3040;42.654;23.296;2023-02-18T05:49:48;20.20;;;12.00;;
6023;SDS011;3040;42.654;23.296;2023-02-18T05:52:15;18.63;;;13.00;;
6023;SDS011;3040;42.654;23.296;2023-02-18T05:54:44;15.10;;;10.90;;
6023;SDS011;3040;42.654;23.296;2023-02-18T05:57:12;16.80;;;11.80;;
6023;SDS011;3040;42.654;23.296;2023-02-18T05:59:39;73.53;;;47.73;;
6023;SDS011;3040;42.654;23.296;2023-02-18T06:02:06;55.93;;;33.10;;
6023;SDS011;3040;42.654;23.296;2023-02-18T06:04:33;40.33;;;23.47;;
6023;SDS011;3040;42.654;23.296;2023-02-18T06:07:00;49.37;;;26.40;;
6023;SDS011;3040;42.654;23.296;2023-02-18T06:09:27;25.13;;;14.63;;
6023;SDS011;3040;42.654;23.296;2023-02-18T06:11:55;19.97;;;13.77;;
6023;SDS011;3040;42.654;23.296;2023-02-18T06:14:22;22.47;;;14.73;;
6023;SDS011;3040;42.654;23.296;2023-02-18T06:16:50;20.33;;;13.23;;
6023;SDS011;3040;42.654;23.296;2023-02-18T06:19:16;23.07;;;13.77;;
6023;SDS011;3040;42.654;23.296;2023-02-18T06:21:43;18.33;;;12.50;;
6023;SDS011;3040;42.654;23.296;2023-02-18T06:24:10;19.40;;;12.40;;
6023;SDS011;3040;42.654;23.296;2023-02-18T06:26:37;21.63;;;13.00;;
6023;SDS011;3040;42.654;23.296;2023-02-18T06:29:05;28.23;;;13.97;;
6023;SDS011;3040;42.654;23.296;2023-02-18T06:31:32;14.53;;;12.40;;
6023;SDS011;3040;42.654;23.296;2023-02-18T06:33:59;21.00;;;12.80;;
6023;SDS011;3040;42.654;23.296;2023-02-18T06:36:26;21.43;;;14.40;;
6023;SDS011;3040;42.654;23.296;2023-02-18T06:38:53;31.17;;;16.47;;
6023;SDS011;3040;42.654;23.296;2023-02-18T06:41:21;66.70;;;23.50;;
6023;SDS011;3040;42.654;23.296;2023-02-18T06:43:48;30.83;;;15.10;;
6023;SDS011;3040;42.654;23.296;2023-02-18T06:46:17;28.20;;;15.50;;
6023;SDS011;3040;42.654;23.296;2023-02-18T06:48:43;26.33;;;14.53;;
6023;SDS011;3040;42.654;23.296;2023-02-18T06:51:10;27.20;;;13.93;;
6023;SDS011;3040;42.654;23.296;2023-02-18T06:53:37;21.43;;;13.43;;
6023;SDS011;3040;42.654;23.296;2023-02-18T06:56:06;23.87;;;14.37;;
6023;SDS011;3040;42.654;23.296;2023-02-18T06:58:33;27.53;;;14.10;;
6023;SDS011;3040;42.654;23.296;2023-02-18T07:01:00;31.63;;;16.37;;
6023;SDS011;3040;42.654;23.296;2023-02-18T07:03:28;28.70;;;16.10;;
6023;SDS011;3040;42.654;23.296;2023-02-18T07:05:55;35.57;;;16.17;;
6023;SDS011;3040;42.654;23.296;2023-02-18T07:08:22;32.10;;;15.60;;
6023;SDS011;3040;42.654;23.296;2023-02-18T07:10:49;31.10;;;16.60;;
6023;SDS011;3040;42.654;23.296;2023-02-18T07:13:16;27.73;;;16.27;;
6023;SDS011;3040;42.654;23.296;2023-02-18T07:15:43;23.17;;;13.70;;
6023;SDS011;3040;42.654;23.296;2023-02-18T07:18:10;25.47;;;16.20;;
6023;SDS011;3040;42.654;23.296;2023-02-18T07:20:38;25.63;;;14.47;;
6023;SDS011;3040;42.654;23.296;2023-02-18T07:23:05;26.20;;;13.83;;
6023;SDS011;3040;42.654;23.296;2023-02-18T07:25:32;30.33;;;14.50;;
6023;SDS011;3040;42.654;23.296;2023-02-18T07:27:59;39.17;;;14.70;;
6023;SDS011;3040;42.654;23.296;2023-02-18T07:30:25;30.13;;;16.30;;
6023;SDS011;3040;42.654;23.296;2023-02-18T07:32:52;42.67;;;19.10;;
6023;SDS011;3040;42.654;23.296;2023-02-18T07:35:19;33.00;;;16.57;;
6023;SDS011;3040;42.654;23.296;2023-02-18T07:37:48;27.10;;;15.93;;
6023;SDS011;3040;42.654;23.296;2023-02-18T07:40:17;30.63;;;16.67;;
6023;SDS011;3040;42.654;23.296;2023-02-18T07:42:45;29.30;;;16.53;;
6023;SDS011;3040;42.654;23.296;2023-02-18T07:45:12;38.43;;;17.67;;
6023;SDS011;3040;42.654;23.296;2023-02-18T07:47:40;24.93;;;14.47;;
6023;SDS011;3040;42.654;23.296;2023-02-18T07:50:07;23.70;;;14.03;;
6023;SDS011;3040;42.654;23.296;2023-02-18T07:52:35;22.27;;;12.93;;
6023;SDS011;3040;42.654;23.296;2023-02-18T07:55:03;19.47;;;13.67;;
6023;SDS011;3040;42.654;23.296;2023-02-18T07:57:31;18.97;;;13.07;;
6023;SDS011;3040;42.654;23.296;2023-02-18T07:59:57;20.27;;;11.90;;
6023;SDS011;3040;42.654;23.296;2023-02-18T08:02:25;21.67;;;13.77;;
6023;SDS011;3040;42.654;23.296;2023-02-18T08:04:52;19.97;;;12.13;;
6023;SDS011;3040;42.654;23.296;2023-02-18T08:07:19;24.87;;;12.37;;
6023;SDS011;3040;42.654;23.296;2023-02-18T08:09:48;24.80;;;12.57;;
6023;SDS011;3040;42.654;23.296;2023-02-18T08:12:16;19.90;;;12.13;;
6023;SDS011;3040;42.654;23.296;2023-02-18T08:14:43;16.10;;;10.93;;
6023;SDS011;3040;42.654;23.296;2023-02-18T08:17:10;19.77;;;14.27;;
6023;SDS011;3040;42.654;23.296;2023-02-18T08:19:37;16.30;;;13.20;;
6023;SDS011;3040;42.654;23.296;2023-02-18T08:22:04;25.77;;;13.83;;
6023;SDS011;3040;42.654;23.296;2023-02-18T08:24:30;25.53;;;15.30;;
6023;SDS011;3040;42.654;23.296;2023-02-18T08:26:57;24.93;;;13.27;;
6023;SDS011;3040;42.654;23.296;2023-02-18T08:29:26;14.90;;;11.07;;
6023;SDS011;3040;42.654;23.296;2023-02-18T08:31:53;15.60;;;11.43;;
6023;SDS011;3040;42.654;23.296;2023-02-18T08:34:21;20.37;;;12.90;;
6023;SDS011;3040;42.654;23.296;2023-02-18T08:36:48;21.57;;;11.70;;
6023;SDS011;3040;42.654;23.296;2023-02-18T08:39:15;17.00;;;10.63;;
6023;SDS011;3040;42.654;23.296;2023-02-18T08:41:43;22.47;;;11.07;;
6023;SDS011;3040;42.654;23.296;2023-02-18T08:44:10;14.70;;;11.67;;
6023;SDS011;3040;42.654;23.296;2023-02-18T08:46:38;20.90;;;11.07;;
6023;SDS011;3040;42.654;23.296;2023-02-18T08:49:05;16.77;;;11.60;;
6023;SDS011;3040;42.654;23.296;2023-02-18T08:51:32;11.53;;;10.43;;
6023;SDS011;3040;42.654;23.296;2023-02-18T08:53:59;19.37;;;12.13;;
6023;SDS011;3040;42.654;23.296;2023-02-18T08:56:26;22.30;;;12.57;;
6023;SDS011;3040;42.654;23.296;2023-02-18T08:58:52;21.33;;;13.37;;
6023;SDS011;3040;42.654;23.296;2023-02-18T09:01:19;32.80;;;12.27;;
6023;SDS011;3040;42.654;23.296;2023-02-18T09:03:48;42.07;;;15.33;;
6023;SDS011;3040;42.654;23.296;2023-02-18T09:06:14;20.70;;;13.30;;
6023;SDS011;3040;42.654;23.296;2023-02-18T09:08:41;19.97;;;12.13;;
6023;SDS011;3040;42.654;23.296;2023-02-18T09:11:09;18.97;;;11.80;;
6023;SDS011;3040;42.654;23.296;2023-02-18T09:13:36;22.83;;;11.87;;
6023;SDS011;3040;42.654;23.296;2023-02-18T09:16:04;15.23;;;11.63;;
6023;SDS011;3040;42.654;23.296;2023-02-18T09:18:33;16.77;;;11.30;;
6023;SDS011;3040;42.654;23.296;2023-02-18T09:21:03;19.20;;;12.33;;
6023;SDS011;3040;42.654;23.296;2023-02-18T09:23:32;21.37;;;12.13;;
6023;SDS011;3040;42.654;23.296;2023-02-18T09:25:59;14.67;;;10.53;;
6023;SDS011;3040;42.654;23.296;2023-02-18T09:28:26;22.40;;;11.47;;
6023;SDS011;3040;42.654;23.296;2023-02-18T09:30:53;14.77;;;11.60;;
6023;SDS011;3040;42.654;23.296;2023-02-18T09:33:20;23.13;;;12.60;;
6023;SDS011;3040;42.654;23.296;2023-02-18T09:35:47;21.23;;;13.50;;
6023;SDS011;3040;42.654;23.296;2023-02-18T09:38:16;30.67;;;13.00;;
6023;SDS011;3040;42.654;23.296;2023-02-18T09:40:44;21.87;;;12.70;;
6023;SDS011;3040;42.654;23.296;2023-02-18T09:43:17;17.43;;;12.10;;
6023;SDS011;3040;42.654;23.296;2023-02-18T09:45:50;27.93;;;12.30;;
6023;SDS011;3040;42.654;23.296;2023-02-18T09:48:19;37.43;;;13.27;;
6023;SDS011;3040;42.654;23.296;2023-02-18T09:50:51;25.57;;;13.97;;
6023;SDS011;3040;42.654;23.296;2023-02-18T09:53:20;23.57;;;13.80;;
6023;SDS011;3040;42.654;23.296;2023-02-18T09:55:48;19.70;;;12.93;;
6023;SDS011;3040;42.654;23.296;2023-02-18T09:58:18;22.20;;;12.77;;
6023;SDS011;3040;42.654;23.296;2023-02-18T10:00:48;17.57;;;12.27;;
6023;SDS011;3040;42.654;23.296;2023-02-18T10:03:19;18.47;;;13.27;;
6023;SDS011;3040;42.654;23.296;2023-02-18T10:05:51;17.17;;;13.60;;
6023;SDS011;3040;42.654;23.296;2023-02-18T10:08:25;25.13;;;12.63;;
6023;SDS011;3040;42.654;23.296;2023-02-18T10:10:54;24.97;;;12.37;;
6023;SDS011;3040;42.654;23.296;2023-02-18T10:13:21;25.53;;;13.87;;
6023;SDS011;3040;42.654;23.296;2023-02-18T10:15:50;19.13;;;13.07;;
6023;SDS011;3040;42.654;23.296;2023-02-18T10:18:23;30.50;;;14.57;;
6023;SDS011;3040;42.654;23.296;2023-02-18T10:20:57;19.20;;;12.97;;
6023;SDS011;3040;42.654;23.296;2023-02-18T10:23:34;19.63;;;13.33;;
6023;SDS011;3040;42.654;23.296;2023-02-18T10:26:05;21.13;;;12.97;;
6023;SDS011;3040;42.654;23.296;2023-02-18T10:28:35;20.97;;;13.70;;
6023;SDS011;3040;42.654;23.296;2023-02-18T10:31:04;15.67;;;12.60;;
6023;SDS011;3040;42.654;23.296;2023-02-18T10:33:35;20.87;;;14.47;;
6023;SDS011;3040;42.654;23.296;2023-02-18T10:36:12;36.67;;;13.83;;
6023;SDS011;3040;42.654;23.296;2023-02-18T10:38:54;20.67;;;12.70;;
6023;SDS011;3040;42.654;23.296;2023-02-18T10:41:48;20.17;;;14.30;;
6023;SDS011;3040;42.654;23.296;2023-02-18T10:44:25;13.77;;;12.30;;
6023;SDS011;3040;42.654;23.296;2023-02-18T10:47:04;15.57;;;12.87;;
6023;SDS011;3040;42.654;23.296;2023-02-18T10:49:49;18.30;;;12.60;;
6023;SDS011;3040;42.654;23.296;2023-02-18T10:52:22;24.40;;;12.10;;
6023;SDS011;3040;42.654;23.296;2023-02-18T10:54:52;18.87;;;13.13;;
6023;SDS011;3040;42.654;23.296;2023-02-18T10:57:28;18.60;;;12.07;;
6023;SDS011;3040;42.654;23.296;2023-02-18T10:59:57;20.17;;;12.10;;
6023;SDS011;3040;42.654;23.296;2023-02-18T11:02:27;20.87;;;12.50;;
6023;SDS011;3040;42.654;23.296;2023-02-18T11:04:57;17.60;;;12.43;;
6023;SDS011;3040;42.654;23.296;2023-02-18T11:07:31;16.07;;;11.40;;
6023;SDS011;3040;42.654;23.296;2023-02-18T11:10:06;26.17;;;13.43;;
6023;SDS011;3040;42.654;23.296;2023-02-18T11:12:42;25.20;;;11.93;;
6023;SDS011;3040;42.654;23.296;2023-02-18T11:15:16;25.90;;;12.57;;
6023;SDS011;3040;42.654;23.296;2023-02-18T11:17:45;20.73;;;13.60;;
6023;SDS011;3040;42.654;23.296;2023-02-18T11:20:24;21.03;;;11.53;;
6023;SDS011;3040;42.654;23.296;2023-02-18T11:22:59;16.43;;;11.70;;
6023;SDS011;3040;42.654;23.296;2023-02-18T11:25:51;14.73;;;11.20;;
6023;SDS011;3040;42.654;23.296;2023-02-18T11:28:33;15.23;;;10.70;;
6023;SDS011;3040;42.654;23.296;2023-02-18T11:31:07;18.17;;;10.90;;
6023;SDS011;3040;42.654;23.296;2023-02-18T11:33:37;25.57;;;12.57;;
6023;SDS011;3040;42.654;23.296;2023-02-18T11:36:10;15.77;;;10.73;;
6023;SDS011;3040;42.654;23.296;2023-02-18T11:38:46;16.77;;;10.10;;
6023;SDS011;3040;42.654;23.296;2023-02-18T11:41:17;19.33;;;10.63;;
6023;SDS011;3040;42.654;23.296;2023-02-18T11:43:47;36.47;;;10.20;;
6023;SDS011;3040;42.654;23.296;2023-02-18T11:46:17;13.50;;;9.63;;
6023;SDS011;3040;42.654;23.296;2023-02-18T11:48:45;10.23;;;7.33;;
6023;SDS011;3040;42.654;23.296;2023-02-18T11:51:16;18.03;;;8.40;;
6023;SDS011;3040;42.654;23.296;2023-02-18T11:53:59;9.23;;;8.30;;
6023;SDS011;3040;42.654;23.296;2023-02-18T11:56:30;10.73;;;8.07;;
6023;SDS011;3040;42.654;23.296;2023-02-18T11:58:59;12.43;;;7.87;;
6023;SDS011;3040;42.654;23.296;2023-02-18T12:01:30;6.07;;;5.27;;
6023;SDS011;3040;42.654;23.296;2023-02-18T12:04:06;4.10;;;3.80;;
6023;SDS011;3040;42.654;23.296;2023-02-18T12:06:38;5.53;;;5.00;;
6023;SDS011;3040;42.654;23.296;2023-02-18T12:09:14;5.17;;;4.10;;
6023;SDS011;3040;42.654;23.296;2023-02-18T12:11:50;4.20;;;3.70;;
6023;SDS011;3040;42.654;23.296;2023-02-18T12:14:19;4.53;;;2.00;;
6023;SDS011;3040;42.654;23.296;2023-02-18T12:16:51;3.07;;;1.47;;
6023;SDS011;3040;42.654;23.296;2023-02-18T12:19:43;9.73;;;1.70;;
6023;SDS011;3040;42.654;23.296;2023-02-18T12:22:21;6.97;;;1.80;;
6023;SDS011;3040;42.654;23.296;2023-02-18T12:25:01;1.23;;;1.20;;
6023;SDS011;3040;42.654;23.296;2023-02-18T12:27:42;5.20;;;1.30;;
6023;SDS011;3040;42.654;23.296;2023-02-18T12:30:25;2.07;;;1.93;;
6023;SDS011;3040;42.654;23.296;2023-02-18T12:33:05;3.80;;;1.33;;
6023;SDS011;3040;42.654;23.296;2023-02-18T12:35:46;2.57;;;2.20;;
6023;SDS011;3040;42.654;23.296;2023-02-18T12:38:29;4.33;;;2.00;;
6023;SDS011;3040;42.654;23.296;2023-02-18T12:41:16;3.67;;;2.30;;
6023;SDS011;3040;42.654;23.296;2023-02-18T12:44:01;4.00;;;1.93;;
6023;SDS011;3040;42.654;23.296;2023-02-18T12:46:44;1.60;;;1.50;;
6023;SDS011;3040;42.654;23.296;2023-02-18T12:49:25;1.53;;;1.43;;
6023;SDS011;3040;42.654;23.296;2023-02-18T12:52:10;1.80;;;1.70;;
6023;SDS011;3040;42.654;23.296;2023-02-18T12:54:51;4.60;;;2.00;;
6023;SDS011;3040;42.654;23.296;2023-02-18T12:57:35;2.87;;;2.20;;
6023;SDS011;3040;42.654;23.296;2023-02-18T13:03:26;4.27;;;2.57;;
6023;SDS011;3040;42.654;23.296;2023-02-18T13:06:07;2.20;;;2.10;;
6023;SDS011;3040;42.654;23.296;2023-02-18T13:08:49;2.00;;;1.90;;
6023;SDS011;3040;42.654;23.296;2023-02-18T13:11:32;2.70;;;2.10;;
6023;SDS011;3040;42.654;23.296;2023-02-18T13:14:08;2.60;;;2.40;;
6023;SDS011;3040;42.654;23.296;2023-02-18T13:16:40;2.40;;;2.20;;
6023;SDS011;3040;42.654;23.296;2023-02-18T13:19:13;2.30;;;2.20;;
6023;SDS011;3040;42.654;23.296;2023-02-18T13:21:51;2.60;;;2.40;;
6023;SDS011;3040;42.654;23.296;2023-02-18T13:24:25;4.33;;;2.73;;
6023;SDS011;3040;42.654;23.296;2023-02-18T13:26:57;4.30;;;3.00;;
6023;SDS011;3040;42.654;23.296;2023-02-18T13:29:31;5.33;;;2.83;;
6023;SDS011;3040;42.654;23.296;2023-02-18T13:32:08;2.97;;;2.77;;
6023;SDS011;3040;42.654;23.296;2023-02-18T13:34:44;3.90;;;3.23;;
6023;SDS011;3040;42.654;23.296;2023-02-18T13:37:16;3.00;;;2.90;;
6023;SDS011;3040;42.654;23.296;2023-02-18T13:39:51;2.70;;;2.50;;
6023;SDS011;3040;42.654;23.296;2023-02-18T13:42:25;3.30;;;3.00;;
6023;SDS011;3040;42.654;23.296;2023-02-18T13:45:06;4.73;;;2.80;;
6023;SDS011;3040;42.654;23.296;2023-02-18T13:47:51;2.90;;;2.70;;
6023;SDS011;3040;42.654;23.296;2023-02-18T13:50:26;6.83;;;3.07;;
6023;SDS011;3040;42.654;23.296;2023-02-18T13:55:59;4.23;;;3.00;;
6023;SDS011;3040;42.654;23.296;2023-02-18T13:58:30;3.90;;;3.00;;
6023;SDS011;3040;42.654;23.296;2023-02-18T14:01:02;10.70;;;3.93;;
6023;SDS011;3040;42.654;23.296;2023-02-18T14:03:49;6.50;;;3.37;;
6023;SDS011;3040;42.654;23.296;2023-02-18T14:06:20;3.50;;;3.20;;
6023;SDS011;3040;42.654;23.296;2023-02-18T14:08:49;8.13;;;4.10;;
6023;SDS011;3040;42.654;23.296;2023-02-18T14:11:32;7.00;;;4.33;;
6023;SDS011;3040;42.654;23.296;2023-02-18T14:26:09;5.30;;;4.07;;
6023;SDS011;3040;42.654;23.296;2023-02-18T14:28:48;9.47;;;5.00;;
6023;SDS011;3040;42.654;23.296;2023-02-18T14:31:33;5.53;;;4.90;;
6023;SDS011;3040;42.654;23.296;2023-02-18T14:34:13;6.43;;;4.33;;
6023;SDS011;3040;42.654;23.296;2023-02-18T14:36:55;5.10;;;4.70;;
6023;SDS011;3040;42.654;23.296;2023-02-18T14:39:34;6.43;;;4.87;;
6023;SDS011;3040;42.654;23.296;2023-02-18T14:42:11;5.17;;;4.63;;
6023;SDS011;3040;42.654;23.296;2023-02-18T14:44:51;5.60;;;5.13;;
6023;SDS011;3040;42.654;23.296;2023-02-18T14:47:33;4.87;;;4.37;;
6023;SDS011;3040;42.654;23.296;2023-02-18T14:50:10;8.93;;;4.10;;
6023;SDS011;3040;42.654;23.296;2023-02-18T14:52:42;7.17;;;4.93;;
6023;SDS011;3040;42.654;23.296;2023-02-18T14:55:15;6.03;;;5.30;;
6023;SDS011;3040;42.654;23.296;2023-02-18T14:57:47;4.77;;;4.30;;
6023;SDS011;3040;42.654;23.296;2023-02-18T15:00:17;8.57;;;4.40;;
6023;SDS011;3040;42.654;23.296;2023-02-18T15:02:47;6.93;;;4.17;;
6023;SDS011;3040;42.654;23.296;2023-02-18T15:05:15;6.97;;;4.60;;
6023;SDS011;3040;42.654;23.296;2023-02-18T15:10:36;6.87;;;5.13;;
6023;SDS011;3040;42.654;23.296;2023-02-18T15:13:07;5.63;;;5.13;;
6023;SDS011;3040;42.654;23.296;2023-02-18T15:15:38;5.80;;;4.87;;
6023;SDS011;3040;42.654;23.296;2023-02-18T15:18:09;6.30;;;5.17;;
6023;SDS011;3040;42.654;23.296;2023-02-18T15:20:43;7.63;;;5.37;;
6023;SDS011;3040;42.654;23.296;2023-02-18T15:23:12;6.03;;;5.27;;
6023;SDS011;3040;42.654;23.296;2023-02-18T15:25:42;7.37;;;5.60;;
6023;SDS011;3040;42.654;23.296;2023-02-18T15:28:19;5.87;;;5.47;;
6023;SDS011;3040;42.654;23.296;2023-02-18T15:30:48;10.40;;;5.20;;
6023;SDS011;3040;42.654;23.296;2023-02-18T15:33:15;6.63;;;5.50;;